Time;durP1;ratioP1;P1;durP2;ratioP2;P2;SDS_P1;SDS_P2;PMS_P1;PMS_P2;Temp;Humidity;BMP_temperature;BMP_pressure;BME280_temperature;BME280_humidity;BME280_pressure;Samples;Min_cycle;Max_cycle;Signal;HPM_P1;HPM_P2
2022/06/11 00:01:58;;;;;;;0.97;0.97;;;;;15.40;98915.00;;;;5083954;28;20195;-72
2022/06/11 00:04:33;;;;;;;0.70;0.70;;;;;15.50;98918.00;;;;5096445;28;20190;-72
2022/06/11 00:07:03;;;;;;;0.63;0.63;;;;;15.50;98923.00;;;;5096355;28;20256;-72
2022/06/11 00:09:31;;;;;;;1.20;1.20;;;;;15.20;98915.00;;;;5096205;28;20218;-72
2022/06/11 00:11:59;;;;;;;1.27;1.20;;;;;15.30;98921.00;;;;5096238;28;20191;-72
2022/06/11 00:14:28;;;;;;;0.50;0.50;;;;;15.40;98922.00;;;;5096173;28;20191;-72
2022/06/11 00:16:56;;;;;;;0.70;0.70;;;;;15.40;98915.00;;;;5096039;28;20729;-72
2022/06/11 00:19:26;;;;;;;0.80;0.80;;;;;15.20;98913.00;;;;5096051;28;20534;-72
2022/06/11 00:21:56;;;;;;;0.63;0.63;;;;;15.20;98915.00;;;;5096052;28;20234;-72
2022/06/11 00:24:24;;;;;;;0.90;0.90;;;;;15.20;98919.00;;;;5096094;28;20198;-72
2022/06/11 00:26:54;;;;;;;1.03;0.90;;;;;15.20;98918.00;;;;5096266;28;20190;-73
2022/06/11 00:29:23;;;;;;;0.87;0.87;;;;;15.30;98912.00;;;;5096186;28;20661;-72
2022/06/11 00:31:51;;;;;;;0.60;0.60;;;;;15.20;98916.00;;;;5096817;28;20281;-73
2022/06/11 00:34:19;;;;;;;2.87;0.90;;;;;15.20;98913.00;;;;5078059;28;20289;-72
2022/06/11 00:36:46;;;;;;;0.50;0.50;;;;;15.20;98911.00;;;;5095838;28;20223;-73
2022/06/11 00:39:16;;;;;;;0.50;0.50;;;;;15.00;98913.00;;;;5078094;28;20233;-72
2022/06/11 00:41:46;;;;;;;1.13;1.13;;;;;15.00;98911.00;;;;5095621;28;20206;-72
2022/06/11 00:44:15;;;;;;;2.43;1.83;;;;;15.00;98912.00;;;;5095768;28;20224;-71
2022/06/11 00:46:56;;;;;;;0.70;0.70;;;;;15.10;98919.00;;;;5095646;28;20224;-72
2022/06/11 00:49:37;;;;;;;0.50;0.50;;;;;15.00;98917.00;;;;5077913;28;20240;-73
2022/06/11 00:52:20;;;;;;;0.63;0.63;;;;;15.00;98914.00;;;;5095652;28;20631;-72
2022/06/11 00:54:54;;;;;;;2.30;0.90;;;;;14.90;98907.00;;;;5095626;28;20207;-72
2022/06/11 00:57:22;;;;;;;0.57;0.57;;;;;14.70;98907.00;;;;5077822;28;20531;-72
2022/06/11 00:59:53;;;;;;;0.80;0.80;;;;;14.70;98907.00;;;;5095706;28;20588;-72
2022/06/11 01:02:20;;;;;;;2.10;1.00;;;;;14.70;98904.00;;;;5094766;28;20233;-72
2022/06/11 01:04:52;;;;;;;0.60;0.60;;;;;14.60;98899.00;;;;5095446;28;20257;-72
2022/06/11 01:07:45;;;;;;;0.97;0.97;;;;;14.60;98910.00;;;;5095626;28;20202;-72
2022/06/11 01:10:39;;;;;;;1.17;1.17;;;;;14.50;98901.00;;;;5095405;28;20215;-72
2022/06/11 01:13:18;;;;;;;1.43;0.70;;;;;14.60;98903.00;;;;5095297;28;20213;-72
2022/06/11 01:15:53;;;;;;;0.53;0.53;;;;;14.70;98901.00;;;;5100742;28;20229;-72
2022/06/11 01:18:29;;;;;;;0.70;0.70;;;;;14.60;98895.00;;;;5077474;28;20710;-72
2022/06/11 01:21:06;;;;;;;2.10;1.50;;;;;14.50;98899.00;;;;5095145;28;20232;-72
2022/06/11 01:24:17;;;;;;;0.57;0.57;;;;;14.50;98905.00;;;;5095188;28;20206;-72
2022/06/11 01:27:24;;;;;;;0.90;0.90;;;;;14.40;98900.00;;;;5077225;28;20210;-72
2022/06/11 01:29:58;;;;;;;0.60;0.60;;;;;14.20;98894.00;;;;5095086;28;20535;-72
2022/06/11 01:32:44;;;;;;;0.60;0.60;;;;;14.10;98891.00;;;;5094986;28;20206;-72
2022/06/11 01:35:24;;;;;;;0.50;0.50;;;;;14.40;98900.00;;;;5077335;28;20279;-72
2022/06/11 01:37:54;;;;;;;5.20;1.67;;;;;14.20;98895.00;;;;5094949;28;20195;-72
2022/06/11 01:40:31;;;;;;;3.73;0.93;;;;;14.20;98893.00;;;;5094778;28;20229;-72
2022/06/11 01:43:10;;;;;;;0.80;0.80;;;;;14.20;98899.00;;;;5094916;28;20246;-72
2022/06/11 01:45:38;;;;;;;0.73;0.73;;;;;14.10;98899.00;;;;5094911;28;20198;-72
2022/06/11 01:48:11;;;;;;;1.43;1.40;;;;;14.20;98896.00;;;;5094496;28;20548;-72
2022/06/11 01:50:42;;;;;;;0.93;0.93;;;;;14.20;98904.00;;;;5095064;28;20195;-72
2022/06/11 01:53:27;;;;;;;1.10;0.83;;;;;14.20;98889.00;;;;5094607;28;20218;-71
2022/06/11 01:56:09;;;;;;;0.80;0.80;;;;;14.30;98887.00;;;;5094840;28;20212;-72
2022/06/11 01:58:51;;;;;;;1.07;1.07;;;;;14.20;98897.00;;;;5094482;28;20211;-73
2022/06/11 02:01:26;;;;;;;0.90;0.90;;;;;14.20;98891.00;;;;5094560;28;20197;-72
2022/06/11 02:04:06;;;;;;;0.90;0.90;;;;;14.10;98886.00;;;;5094740;28;20298;-72
2022/06/11 02:06:45;;;;;;;1.27;1.20;;;;;14.00;98888.00;;;;5094459;28;20820;-72
2022/06/11 02:09:25;;;;;;;0.63;0.63;;;;;13.90;98889.00;;;;5076724;28;20230;-72
2022/06/11 02:12:00;;;;;;;3.53;0.70;;;;;14.00;98887.00;;;;5095044;28;20521;-71
2022/06/11 02:14:35;;;;;;;0.60;0.60;;;;;14.00;98887.00;;;;5098991;28;20197;-72
2022/06/11 02:17:08;;;;;;;0.60;0.60;;;;;14.00;98888.00;;;;5097063;28;20186;-72
2022/06/11 02:19:42;;;;;;;1.63;1.53;;;;;14.00;98884.00;;;;5094485;28;20302;-72
2022/06/11 02:22:15;;;;;;;0.50;0.50;;;;;13.90;98879.00;;;;5094195;28;20358;-72
2022/06/11 02:24:49;;;;;;;0.87;0.87;;;;;13.90;98890.00;;;;5094240;28;20274;-72
2022/06/11 02:27:22;;;;;;;0.57;0.57;;;;;14.00;98890.00;;;;5076184;28;20590;-72
2022/06/11 02:29:50;;;;;;;1.27;1.00;;;;;14.00;98887.00;;;;5076233;28;20199;-72
2022/06/11 02:32:20;;;;;;;0.90;0.90;;;;;13.80;98889.00;;;;5094000;28;20273;-72
2022/06/11 02:34:50;;;;;;;0.83;0.83;;;;;13.80;98882.00;;;;5094018;28;20199;-72
2022/06/11 02:37:20;;;;;;;0.70;0.70;;;;;13.80;98884.00;;;;5094057;28;20304;-70
2022/06/11 02:39:47;;;;;;;1.17;1.17;;;;;13.70;98892.00;;;;5093764;28;20218;-72
2022/06/11 02:42:17;;;;;;;0.70;0.70;;;;;13.80;98881.00;;;;5093808;28;20291;-72
2022/06/11 02:44:46;;;;;;;1.20;1.20;;;;;13.80;98891.00;;;;5077815;28;20580;-72
2022/06/11 02:47:15;;;;;;;0.60;0.60;;;;;13.90;98885.00;;;;5095624;28;20194;-72
2022/06/11 02:49:43;;;;;;;1.00;1.00;;;;;13.90;98886.00;;;;5093684;28;20265;-72
2022/06/11 02:52:14;;;;;;;0.53;0.53;;;;;13.90;98889.00;;;;5075923;28;20211;-72
2022/06/11 02:54:44;;;;;;;1.67;1.57;;;;;13.90;98885.00;;;;5093902;28;20222;-72
2022/06/11 02:57:16;;;;;;;0.60;0.60;;;;;13.80;98888.00;;;;5093706;28;20195;-72
2022/06/11 02:59:46;;;;;;;0.53;0.53;;;;;13.70;98892.00;;;;5075678;28;20222;-72
2022/06/11 03:02:13;;;;;;;0.80;0.80;;;;;13.70;98899.00;;;;5093687;28;20563;-72
2022/06/11 03:04:41;;;;;;;0.60;0.60;;;;;13.70;98886.00;;;;5093607;28;20238;-72
2022/06/11 03:07:08;;;;;;;1.90;1.37;;;;;13.70;98889.00;;;;5093641;28;20701;-72
2022/06/11 03:09:37;;;;;;;0.80;0.80;;;;;13.60;98892.00;;;;5093501;28;20293;-72
2022/06/11 03:12:08;;;;;;;1.50;0.90;;;;;13.60;98901.00;;;;5075680;28;20194;-72
2022/06/11 03:14:36;;;;;;;0.70;0.70;;;;;13.50;98898.00;;;;5093306;28;20570;-72
2022/06/11 03:17:03;;;;;;;0.50;0.50;;;;;13.40;98902.00;;;;5093584;28;20210;-72
2022/06/11 03:19:33;;;;;;;0.80;0.80;;;;;13.40;98903.00;;;;5093305;28;20307;-74
2022/06/11 03:22:00;;;;;;;0.50;0.50;;;;;13.50;98902.00;;;;5093457;28;20222;-72
2022/06/11 03:24:28;;;;;;;0.73;0.73;;;;;13.50;98905.00;;;;5094507;28;20277;-72
2022/06/11 03:26:57;;;;;;;1.00;1.00;;;;;13.50;98911.00;;;;5096980;28;20705;-72
2022/06/11 03:29:25;;;;;;;3.40;1.20;;;;;13.60;98916.00;;;;5096754;28;20198;-72
2022/06/11 03:31:54;;;;;;;0.47;0.47;;;;;13.60;98910.00;;;;5096956;28;20278;-72
2022/06/11 03:34:21;;;;;;;2.83;1.47;;;;;13.70;98916.00;;;;5096677;28;20215;-72
2022/06/11 03:36:52;;;;;;;1.13;1.13;;;;;13.70;98904.00;;;;5096745;28;20198;-72
2022/06/11 03:39:22;;;;;;;0.50;0.50;;;;;13.70;98913.00;;;;5079147;28;20227;-72
2022/06/11 03:41:49;;;;;;;1.10;1.10;;;;;13.70;98916.00;;;;5096561;28;20222;-72
2022/06/11 03:44:16;;;;;;;1.40;1.07;;;;;13.60;98915.00;;;;5096792;28;20210;-72
2022/06/11 03:46:44;;;;;;;1.47;1.17;;;;;13.60;98917.00;;;;5096775;28;20199;-72
2022/06/11 03:49:10;;;;;;;0.70;0.70;;;;;13.50;98915.00;;;;5096537;28;20222;-72
2022/06/11 03:51:37;;;;;;;1.23;1.13;;;;;13.60;98915.00;;;;5096491;28;20557;-72
2022/06/11 03:54:05;;;;;;;0.70;0.70;;;;;13.60;98908.00;;;;5078785;28;20741;-72
2022/06/11 03:56:33;;;;;;;0.80;0.80;;;;;13.60;98911.00;;;;5096537;28;20191;-72
2022/06/11 03:59:02;;;;;;;0.50;0.50;;;;;13.60;98917.00;;;;5096328;28;20226;-72
2022/06/11 04:01:29;;;;;;;0.80;0.80;;;;;13.60;98920.00;;;;5096475;28;20283;-72
2022/06/11 04:03:58;;;;;;;0.60;0.60;;;;;13.80;98915.00;;;;5098632;28;20273;-72
2022/06/11 04:06:28;;;;;;;0.70;0.70;;;;;13.70;98929.00;;;;5101318;28;20278;-72
2022/06/11 04:08:56;;;;;;;0.93;0.93;;;;;13.80;98923.00;;;;5096617;28;20301;-72
2022/06/11 04:11:26;;;;;;;0.73;0.73;;;;;13.80;98933.00;;;;5096754;28;20249;-71
2022/06/11 04:13:54;;;;;;;0.80;0.80;;;;;13.80;98933.00;;;;5078362;28;20199;-72
2022/06/11 04:16:29;;;;;;;0.50;0.50;;;;;13.90;98931.00;;;;5096247;28;20652;-72
2022/06/11 04:18:58;;;;;;;1.10;1.10;;;;;13.90;98935.00;;;;5096080;28;20550;-71
2022/06/11 04:21:25;;;;;;;0.70;0.70;;;;;13.90;98940.00;;;;5096358;28;20210;-72
2022/06/11 04:23:55;;;;;;;0.77;0.77;;;;;13.90;98941.00;;;;5095990;28;20205;-72
2022/06/11 04:26:26;;;;;;;0.87;0.83;;;;;13.80;98938.00;;;;5096089;28;20614;-72
2022/06/11 04:28:55;;;;;;;1.13;1.13;;;;;14.00;98935.00;;;;5095824;28;20549;-72
2022/06/11 04:31:23;;;;;;;0.50;0.50;;;;;13.90;98938.00;;;;5078178;28;20195;-72
2022/06/11 04:33:50;;;;;;;0.70;0.70;;;;;14.00;98943.00;;;;5095994;28;20255;-72
2022/06/11 04:36:19;;;;;;;0.60;0.60;;;;;14.00;98939.00;;;;5094901;28;20229;-72
2022/06/11 04:38:46;;;;;;;0.80;0.80;;;;;14.00;98942.00;;;;5095805;28;20191;-72
2022/06/11 04:41:13;;;;;;;1.00;1.00;;;;;14.00;98948.00;;;;5095638;28;20222;-72
2022/06/11 04:43:41;;;;;;;1.13;1.13;;;;;14.00;98950.00;;;;5095644;28;20216;-72
2022/06/11 04:46:10;;;;;;;1.70;1.10;;;;;14.10;98943.00;;;;5095675;28;20201;-72
2022/06/11 04:48:39;;;;;;;0.67;0.67;;;;;14.30;98940.00;;;;5095624;28;20214;-72
2022/06/11 04:51:06;;;;;;;0.80;0.80;;;;;14.30;98953.00;;;;5095572;28;20207;-72
2022/06/11 04:53:33;;;;;;;1.13;1.00;;;;;14.40;98952.00;;;;5095574;28;20190;-72
2022/06/11 04:56:00;;;;;;;0.70;0.70;;;;;14.40;98950.00;;;;5095549;28;20219;-72
2022/06/11 04:58:27;;;;;;;0.53;0.53;;;;;14.60;98953.00;;;;5095534;28;20658;-72
2022/06/11 05:00:54;;;;;;;0.50;0.50;;;;;14.70;98957.00;;;;5077659;28;20226;-73
2022/06/11 05:03:21;;;;;;;0.80;0.80;;;;;14.80;98953.00;;;;5095510;28;20195;-72
2022/06/11 05:05:51;;;;;;;3.50;1.27;;;;;14.90;98953.00;;;;5077563;28;20215;-72
2022/06/11 05:08:18;;;;;;;0.63;0.63;;;;;14.90;98955.00;;;;5095260;28;20229;-73
2022/06/11 05:10:45;;;;;;;1.03;1.00;;;;;15.00;98960.00;;;;5095359;28;20273;-72
2022/06/11 05:13:13;;;;;;;0.70;0.70;;;;;15.00;98961.00;;;;5077416;28;20210;-73
2022/06/11 05:15:45;;;;;;;2.10;1.17;;;;;15.20;98962.00;;;;5095219;28;20187;-72
2022/06/11 05:18:13;;;;;;;1.33;1.33;;;;;15.20;98960.00;;;;5095222;28;20259;-72
2022/06/11 05:20:41;;;;;;;0.60;0.60;;;;;15.30;98964.00;;;;5095018;28;20222;-71
2022/06/11 05:23:08;;;;;;;1.43;1.33;;;;;15.40;98964.00;;;;5095305;28;20202;-72
2022/06/11 05:25:37;;;;;;;0.43;0.43;;;;;15.50;98960.00;;;;5095028;28;20187;-72
2022/06/11 05:28:05;;;;;;;0.90;0.90;;;;;15.50;98968.00;;;;5095003;28;20218;-72
2022/06/11 05:30:35;;;;;;;0.80;0.80;;;;;15.60;98958.00;;;;5095181;28;20203;-72
2022/06/11 05:33:02;;;;;;;0.70;0.70;;;;;15.70;98966.00;;;;5094891;28;20195;-71
2022/06/11 05:35:33;;;;;;;0.80;0.80;;;;;15.80;98982.00;;;;5095064;28;20214;-72
2022/06/11 05:38:04;;;;;;;0.50;0.50;;;;;15.80;98971.00;;;;5095133;28;20229;-72
2022/06/11 05:40:38;;;;;;;1.77;1.67;;;;;15.90;98970.00;;;;5094885;28;20233;-72
2022/06/11 05:43:05;;;;;;;1.50;1.40;;;;;16.00;98968.00;;;;5095251;28;20278;-72
2022/06/11 05:45:37;;;;;;;1.00;0.90;;;;;16.10;98970.00;;;;5094704;28;20207;-72
2022/06/11 05:48:06;;;;;;;0.60;0.60;;;;;16.20;98975.00;;;;5094487;28;20279;-72
2022/06/11 05:50:37;;;;;;;0.57;0.57;;;;;16.20;98982.00;;;;5097873;28;20277;-72
2022/06/11 05:53:06;;;;;;;0.73;0.73;;;;;16.40;98979.00;;;;5096594;28;20332;-72
2022/06/11 05:55:38;;;;;;;0.50;0.50;;;;;16.50;98978.00;;;;5099786;28;20231;-73
2022/06/11 05:58:08;;;;;;;0.87;0.87;;;;;16.50;98976.00;;;;5096402;28;20179;-74
2022/06/11 06:00:38;;;;;;;0.50;0.50;;;;;16.60;98980.00;;;;5094512;28;20735;-73
2022/06/11 06:03:06;;;;;;;0.60;0.60;;;;;16.60;98979.00;;;;5095189;28;20205;-72
2022/06/11 06:05:33;;;;;;;0.40;0.40;;;;;16.70;98979.00;;;;5094511;28;20198;-73
2022/06/11 06:08:00;;;;;;;0.80;0.80;;;;;16.80;98983.00;;;;5076888;28;20230;-72
2022/06/11 06:10:27;;;;;;;0.57;0.57;;;;;16.80;98984.00;;;;5094459;28;20278;-72
2022/06/11 06:12:57;;;;;;;0.77;0.77;;;;;16.90;98973.00;;;;5094271;28;20707;-74
2022/06/11 06:15:26;;;;;;;1.23;0.73;;;;;17.10;98979.00;;;;5094319;28;20525;-72
2022/06/11 06:17:54;;;;;;;0.50;0.50;;;;;17.20;98980.00;;;;5094102;28;20233;-72
2022/06/11 06:20:23;;;;;;;0.50;0.50;;;;;17.40;98979.00;;;;5094205;28;20236;-72
2022/06/11 06:22:50;;;;;;;0.50;0.50;;;;;17.40;98979.00;;;;5094313;28;20197;-73
2022/06/11 06:25:19;;;;;;;0.50;0.50;;;;;17.50;98978.00;;;;5094132;28;20252;-72
2022/06/11 06:27:47;;;;;;;0.80;0.80;;;;;17.60;98989.00;;;;5093998;28;20198;-72
2022/06/11 06:30:14;;;;;;;0.73;0.73;;;;;17.60;98984.00;;;;5094123;28;20544;-72
2022/06/11 06:32:41;;;;;;;1.10;1.10;;;;;17.60;98994.00;;;;5094376;28;20205;-72
2022/06/11 06:35:10;;;;;;;0.50;0.50;;;;;17.70;98997.00;;;;5093975;28;20222;-72
2022/06/11 06:37:37;;;;;;;0.60;0.60;;;;;17.70;98996.00;;;;5093972;28;20195;-72
2022/06/11 06:40:05;;;;;;;0.40;0.40;;;;;17.80;98990.00;;;;5093808;28;20226;-72
2022/06/11 06:42:32;;;;;;;0.53;0.53;;;;;17.80;98998.00;;;;5076025;28;20195;-72
2022/06/11 06:45:00;;;;;;;0.50;0.50;;;;;18.00;98989.00;;;;5094154;28;20499;-74
2022/06/11 06:47:29;;;;;;;0.70;0.70;;;;;18.10;98999.00;;;;5093791;28;20225;-72
2022/06/11 06:49:56;;;;;;;0.47;0.47;;;;;18.10;98999.00;;;;5093831;28;20194;-72
2022/06/11 06:52:23;;;;;;;0.87;0.87;;;;;18.30;98997.00;;;;5093772;28;20222;-72
2022/06/11 06:54:50;;;;;;;0.43;0.43;;;;;18.30;98960.00;;;;5093749;28;20221;-72
2022/06/11 06:57:17;;;;;;;0.60;0.60;;;;;18.40;98996.00;;;;5076021;28;20237;-72
2022/06/11 06:59:44;;;;;;;0.50;0.50;;;;;18.40;99003.00;;;;5092903;28;20214;-72
2022/06/11 07:02:13;;;;;;;0.40;0.40;;;;;18.40;98996.00;;;;5093388;28;20195;-73
2022/06/11 07:04:42;;;;;;;0.50;0.50;;;;;18.40;99000.00;;;;5093721;28;20199;-73
2022/06/11 07:07:14;;;;;;;0.60;0.60;;;;;18.50;98998.00;;;;5075893;28;20207;-73
2022/06/11 07:09:41;;;;;;;0.70;0.70;;;;;18.60;98998.00;;;;5093566;28;20551;-72
2022/06/11 07:12:08;;;;;;;0.83;0.70;;;;;18.70;98993.00;;;;5093482;28;20816;-72
2022/06/11 07:14:37;;;;;;;1.03;1.03;;;;;18.70;98997.00;;;;5093474;28;20225;-72
2022/06/11 07:17:10;;;;;;;0.70;0.63;;;;;18.80;98993.00;;;;5093443;28;20215;-72
2022/06/11 07:19:42;;;;;;;0.50;0.50;;;;;18.90;98994.00;;;;5093412;28;20230;-71
2022/06/11 07:22:14;;;;;;;0.73;0.73;;;;;18.90;98998.00;;;;5075590;28;20211;-72
2022/06/11 07:24:42;;;;;;;0.70;0.70;;;;;19.00;98999.00;;;;5093461;28;20649;-72
2022/06/11 07:27:12;;;;;;;0.47;0.47;;;;;19.10;98995.00;;;;5093627;28;20218;-72
2022/06/11 07:29:43;;;;;;;0.70;0.70;;;;;19.20;99002.00;;;;5093496;28;20195;-72
2022/06/11 07:32:15;;;;;;;0.77;0.77;;;;;19.40;99002.00;;;;5093229;28;20218;-72
2022/06/11 07:34:43;;;;;;;0.87;0.87;;;;;19.50;98997.00;;;;5093269;28;20297;-72
2022/06/11 07:37:11;;;;;;;0.50;0.50;;;;;19.60;98999.00;;;;5093517;28;20292;-72
2022/06/11 07:39:38;;;;;;;0.70;0.70;;;;;19.60;98987.00;;;;5093093;28;20285;-71
2022/06/11 07:42:05;;;;;;;0.57;0.57;;;;;19.70;98988.00;;;;5093081;28;20202;-72
2022/06/11 07:44:32;;;;;;;0.50;0.50;;;;;19.70;98986.00;;;;5093191;28;20209;-72
2022/06/11 07:47:01;;;;;;;0.50;0.50;;;;;19.80;98991.00;;;;5097269;28;20214;-73
2022/06/11 07:49:28;;;;;;;0.53;0.53;;;;;20.00;98989.00;;;;5093425;28;20351;-72
2022/06/11 07:51:58;;;;;;;1.40;1.03;;;;;20.00;98988.00;;;;5093008;28;20255;-72
2022/06/11 07:54:25;;;;;;;0.40;0.40;;;;;20.00;98994.00;;;;5093061;28;20330;-72
2022/06/11 07:56:52;;;;;;;0.50;0.50;;;;;20.20;98990.00;;;;5093103;28;20198;-72
2022/06/11 07:59:19;;;;;;;0.63;0.63;;;;;20.50;98997.00;;;;5092894;28;20237;-72
2022/06/11 08:01:45;;;;;;;0.43;0.43;;;;;20.70;98994.00;;;;5093163;28;20187;-72
2022/06/11 08:04:12;;;;;;;0.50;0.50;;;;;20.60;98991.00;;;;5092828;28;20203;-72
2022/06/11 08:06:39;;;;;;;0.90;0.90;;;;;20.50;98994.00;;;;5092726;28;20218;-72
2022/06/11 08:09:09;;;;;;;0.83;0.83;;;;;20.60;98996.00;;;;5092841;28;20278;-72
2022/06/11 08:11:36;;;;;;;0.77;0.77;;;;;20.60;98989.00;;;;5094101;28;20690;-72
2022/06/11 08:14:03;;;;;;;0.40;0.40;;;;;20.80;98994.00;;;;5096470;28;20272;-72
2022/06/11 08:16:32;;;;;;;0.50;0.50;;;;;20.80;98999.00;;;;5096344;28;20202;-72
2022/06/11 08:18:59;;;;;;;1.33;1.23;;;;;20.90;98996.00;;;;5096348;28;20252;-71
2022/06/11 08:21:27;;;;;;;0.50;0.50;;;;;20.90;98991.00;;;;5096397;28;20545;-72
2022/06/11 08:23:57;;;;;;;0.43;0.43;;;;;21.00;98994.00;;;;5096092;28;20187;-71
2022/06/11 08:26:27;;;;;;;0.80;0.80;;;;;21.10;98995.00;;;;5096365;28;20201;-71
2022/06/11 08:28:56;;;;;;;0.50;0.50;;;;;21.20;98998.00;;;;5078425;28;20276;-71
2022/06/11 08:31:23;;;;;;;0.60;0.60;;;;;21.40;98999.00;;;;5096141;28;20191;-71
2022/06/11 08:33:50;;;;;;;1.00;0.90;;;;;21.30;98995.00;;;;5095977;28;20542;-72
2022/06/11 08:36:17;;;;;;;0.60;0.60;;;;;21.30;99007.00;;;;5095960;28;20195;-71
2022/06/11 08:38:44;;;;;;;0.30;0.30;;;;;21.40;99001.00;;;;5095724;28;20277;-70
2022/06/11 08:41:16;;;;;;;2.70;1.55;;;;;21.40;99004.00;;;;5096079;28;20232;-71
2022/06/11 08:43:52;;;;;;;0.37;0.37;;;;;21.40;99009.00;;;;5096075;28;20282;-72
2022/06/11 08:46:24;;;;;;;0.65;0.63;;;;;21.50;99005.00;;;;5095652;28;20296;-72
2022/06/11 08:49:00;;;;;;;0.80;0.80;;;;;21.60;99002.00;;;;5095671;28;20269;-71
2022/06/11 08:51:33;;;;;;;0.40;0.40;;;;;21.60;99003.00;;;;5095571;28;20208;-71
2022/06/11 08:54:04;;;;;;;0.60;0.60;;;;;21.60;99000.00;;;;5095541;28;20187;-71
2022/06/11 08:56:37;;;;;;;0.45;0.45;;;;;21.70;99004.00;;;;5095782;28;20198;-72
2022/06/11 08:59:32;;;;;;;0.40;0.40;;;;;22.00;99005.00;;;;5095443;28;20218;-71
2022/06/11 09:02:19;;;;;;;0.73;0.73;;;;;22.20;99000.00;;;;5095568;28;20194;-73
2022/06/11 09:05:01;;;;;;;0.50;0.50;;;;;22.20;98999.00;;;;5077293;28;20230;-72
2022/06/11 09:07:39;;;;;;;0.40;0.40;;;;;22.20;98996.00;;;;5095270;28;20210;-73
2022/06/11 09:10:24;;;;;;;0.43;0.43;;;;;22.30;98995.00;;;;5095256;28;20244;-72
2022/06/11 09:13:08;;;;;;;0.70;0.70;;;;;22.40;98984.00;;;;5095217;28;20630;-73
2022/06/11 09:15:48;;;;;;;0.40;0.40;;;;;22.50;98986.00;;;;5095048;28;20191;-72
2022/06/11 09:18:40;;;;;;;0.40;0.40;;;;;22.60;98987.00;;;;5094935;28;20363;-72
2022/06/11 09:21:21;;;;;;;0.73;0.73;;;;;22.70;98993.00;;;;5095055;28;20218;-72
2022/06/11 09:24:27;;;;;;;0.70;0.70;;;;;22.70;98986.00;;;;5094881;28;20219;-74
2022/06/11 09:27:00;;;;;;;0.95;0.95;;;;;22.90;98983.00;;;;5095041;28;20199;-75
2022/06/11 09:29:34;;;;;;;0.50;0.50;;;;;22.90;98980.00;;;;5094952;28;20222;-74
2022/06/11 09:32:08;;;;;;;0.60;0.60;;;;;23.00;98979.00;;;;5095210;28;20186;-75
2022/06/11 09:34:41;;;;;;;0.65;0.65;;;;;23.10;98984.00;;;;5095085;28;20218;-73
2022/06/11 09:37:13;;;;;;;4.15;0.93;;;;;23.30;98980.00;;;;5095040;28;20202;-74
2022/06/11 09:39:42;;;;;;;0.50;0.50;;;;;23.50;98981.00;;;;5094833;28;20526;-75
2022/06/11 09:42:39;;;;;;;0.57;0.57;;;;;23.50;98978.00;;;;5094815;28;20233;-74
2022/06/11 09:45:15;;;;;;;0.47;0.47;;;;;23.50;98982.00;;;;5087459;28;20210;-74
2022/06/11 09:47:55;;;;;;;0.60;0.60;;;;;23.70;98983.00;;;;5094924;28;20171;-73
2022/06/11 09:50:26;;;;;;;0.40;0.40;;;;;23.70;98990.00;;;;5094801;28;20197;-74
2022/06/11 09:53:11;;;;;;;0.80;0.80;;;;;23.60;98981.00;;;;5094900;28;20218;-75
2022/06/11 09:55:48;;;;;;;0.68;0.68;;;;;23.80;98991.00;;;;5094691;28;20214;-75
2022/06/11 09:58:25;;;;;;;0.40;0.40;;;;;23.80;98990.00;;;;5094766;28;20670;-76
2022/06/11 10:00:57;;;;;;;0.70;0.70;;;;;24.00;98984.00;;;;5094709;28;20279;-75
2022/06/11 10:03:31;;;;;;;0.65;0.65;;;;;24.20;98993.00;;;;5094584;28;20210;-76
2022/06/11 10:06:04;;;;;;;0.50;0.50;;;;;24.20;98985.00;;;;5094473;28;20195;-76
2022/06/11 10:08:40;;;;;;;0.80;0.80;;;;;24.30;98985.00;;;;5094497;28;20202;-75
2022/06/11 10:11:13;;;;;;;0.50;0.50;;;;;24.20;98986.00;;;;5094427;28;20281;-76
2022/06/11 10:13:49;;;;;;;2.17;1.20;;;;;24.30;98985.00;;;;5094496;28;20484;-72
2022/06/11 10:16:31;;;;;;;0.88;0.85;;;;;24.40;98986.00;;;;5094359;28;20230;-74
2022/06/11 10:19:08;;;;;;;1.60;0.65;;;;;24.50;98986.00;;;;5094200;28;20632;-73
2022/06/11 10:21:36;;;;;;;0.70;0.70;;;;;24.70;98989.00;;;;5094340;28;20226;-74
2022/06/11 10:24:09;;;;;;;0.50;0.50;;;;;24.60;98993.00;;;;5076745;28;20251;-74
2022/06/11 10:26:42;;;;;;;0.60;0.60;;;;;24.60;98985.00;;;;5094272;28;20220;-76
2022/06/11 10:29:18;;;;;;;0.40;0.40;;;;;24.60;98996.00;;;;5094149;28;20198;-76
2022/06/11 10:31:48;;;;;;;0.40;0.40;;;;;24.80;98993.00;;;;5094278;28;20194;-77
2022/06/11 10:34:21;;;;;;;0.57;0.57;;;;;24.50;98989.00;;;;5093434;28;20259;-76
2022/06/11 10:36:54;;;;;;;0.77;0.77;;;;;24.70;98989.00;;;;5094128;28;20187;-76
2022/06/11 10:39:27;;;;;;;0.60;0.60;;;;;24.70;98994.00;;;;5093929;28;20214;-75
2022/06/11 10:42:00;;;;;;;0.80;0.80;;;;;24.70;98987.00;;;;5094005;28;20201;-75
2022/06/11 10:44:37;;;;;;;0.60;0.60;;;;;24.90;98989.00;;;;5093977;28;20217;-74
2022/06/11 10:47:16;;;;;;;0.85;0.85;;;;;25.00;98988.00;;;;5076340;28;20335;-77
2022/06/11 10:49:45;;;;;;;1.10;1.10;;;;;25.00;98991.00;;;;5093966;28;20218;-76
2022/06/11 10:52:22;;;;;;;0.43;0.43;;;;;25.20;98987.00;;;;5076071;28;20207;-75
2022/06/11 10:54:49;;;;;;;0.70;0.70;;;;;25.20;98989.00;;;;5093803;28;20190;-75
2022/06/11 10:57:24;;;;;;;0.40;0.40;;;;;25.50;98977.00;;;;5075807;28;20209;-76
2022/06/11 11:00:04;;;;;;;0.50;0.50;;;;;25.50;98973.00;;;;5093662;28;20214;-74
2022/06/11 11:02:37;;;;;;;0.60;0.60;;;;;25.80;98978.00;;;;5093723;28;20246;-76
2022/06/11 11:05:08;;;;;;;0.75;0.75;;;;;26.10;98977.00;;;;5076012;28;20198;-76
2022/06/11 11:07:44;;;;;;;0.45;0.45;;;;;26.20;98968.00;;;;5094083;28;20222;-76
2022/06/11 11:10:39;;;;;;;0.70;0.70;;;;;26.40;98965.00;;;;5100073;28;20214;-76
2022/06/11 11:13:13;;;;;;;0.65;0.65;;;;;26.70;98976.00;;;;5099740;28;20219;-75
2022/06/11 11:15:51;;;;;;;0.45;0.45;;;;;26.90;98965.00;;;;5094925;28;20194;-75
2022/06/11 11:18:22;;;;;;;0.63;0.63;;;;;26.80;98967.00;;;;5093515;28;20210;-76
2022/06/11 11:20:53;;;;;;;0.70;0.70;;;;;27.00;98961.00;;;;5093449;28;20218;-75
2022/06/11 11:23:25;;;;;;;0.75;0.75;;;;;27.10;98955.00;;;;5093435;28;20196;-76
2022/06/11 11:25:55;;;;;;;0.65;0.65;;;;;27.10;98965.00;;;;5093563;28;20216;-76
2022/06/11 11:28:26;;;;;;;0.57;0.57;;;;;27.20;98960.00;;;;5093476;28;20195;-75
2022/06/11 11:31:03;;;;;;;1.20;1.20;;;;;27.00;98949.00;;;;5093301;28;20219;-75
2022/06/11 11:33:33;;;;;;;2.92;1.35;;;;;27.20;98949.00;;;;5092672;28;20190;-75
2022/06/11 11:36:20;;;;;;;2.15;1.08;;;;;27.10;98958.00;;;;5093300;28;20548;-76
2022/06/11 11:39:01;;;;;;;1.13;1.08;;;;;27.30;98952.00;;;;5093345;28;20199;-77
2022/06/11 11:41:36;;;;;;;2.05;0.70;;;;;27.40;98943.00;;;;5093175;28;20675;-78
2022/06/11 11:44:03;;;;;;;0.70;0.70;;;;;27.60;98947.00;;;;5093082;28;20186;-76
2022/06/11 11:46:34;;;;;;;0.80;0.80;;;;;27.80;98946.00;;;;5095804;28;20215;-75
2022/06/11 11:49:05;;;;;;;2.35;0.82;;;;;27.80;98950.00;;;;5096659;28;20209;-75
2022/06/11 11:51:36;;;;;;;0.65;0.65;;;;;27.40;98938.00;;;;5096701;28;20217;-77
2022/06/11 11:54:11;;;;;;;0.63;0.63;;;;;27.80;98932.00;;;;5096560;28;20226;-77
2022/06/11 11:56:41;;;;;;;0.70;0.70;;;;;28.00;98936.00;;;;5096645;28;20190;-78
2022/06/11 11:59:14;;;;;;;0.60;0.60;;;;;28.40;98929.00;;;;5096655;28;20218;-77
2022/06/11 12:01:42;;;;;;;0.90;0.90;;;;;28.50;98936.00;;;;5096572;28;20222;-78
2022/06/11 12:04:16;;;;;;;0.60;0.60;;;;;28.70;98929.00;;;;5096466;28;20658;-77
2022/06/11 12:06:47;;;;;;;0.80;0.80;;;;;28.40;98928.00;;;;5096505;28;20217;-80
2022/06/11 12:09:23;;;;;;;13.00;1.10;;;;;28.80;98925.00;;;;5096389;28;20209;-79
2022/06/11 12:12:10;;;;;;;0.60;0.60;;;;;29.10;98929.00;;;;5096420;28;20302;-78
2022/06/11 12:14:40;;;;;;;0.50;0.50;;;;;29.10;98926.00;;;;5096289;28;20217;-79
2022/06/11 12:17:25;;;;;;;0.52;0.52;;;;;28.80;98922.00;;;;5096206;28;20230;-77
2022/06/11 12:19:59;;;;;;;0.82;0.82;;;;;28.80;98924.00;;;;5096461;28;20541;-79
2022/06/11 12:22:34;;;;;;;1.90;1.23;;;;;29.00;98912.00;;;;5096363;28;20280;-77
2022/06/11 12:25:03;;;;;;;0.63;0.63;;;;;29.50;98909.00;;;;5096412;28;20208;-77
2022/06/11 12:27:36;;;;;;;0.77;0.77;;;;;30.00;98919.00;;;;5096231;28;20197;-77
2022/06/11 12:30:11;;;;;;;0.95;0.95;;;;;29.50;98919.00;;;;5096099;28;20322;-77
2022/06/11 12:32:38;;;;;;;0.70;0.70;;;;;29.40;98914.00;;;;5096142;28;20218;-76
2022/06/11 12:35:14;;;;;;;0.55;0.55;;;;;29.30;98904.00;;;;5096230;28;20255;-77
2022/06/11 12:37:50;;;;;;;0.70;0.70;;;;;29.60;98905.00;;;;5096870;28;20289;-78
2022/06/11 12:40:27;;;;;;;0.70;0.70;;;;;29.80;98908.00;;;;5096457;28;20236;-78
2022/06/11 12:43:08;;;;;;;1.08;0.80;;;;;29.70;98903.00;;;;5096406;28;20191;-77